Time;durP1;ratioP1;P1;durP2;ratioP2;P2;SDS_P1;SDS_P2;PMS_P1;PMS_P2;Temp;Humidity;BMP_temperature;BMP_pressure;BME280_temperature;BME280_humidity;BME280_pressure;Samples;Min_cycle;Max_cycle;Signal;HPM_P1;HPM_P2
2021/08/22 00:00:33;;;;;;;26.98;14.18;;;;;;;;;;5033051;28;20025;-82
2021/08/22 00:02:58;;;;;;;24.48;13.55;;;;;;;;;;5032523;28;20358;-82
2021/08/22 00:05:23;;;;;;;28.00;14.35;;;;;;;;;;5022627;28;20036;-82
2021/08/22 00:07:49;;;;;;;25.70;12.25;;;;;;;;;;5033128;28;20125;-82
2021/08/22 00:10:14;;;;;;;23.40;13.52;;;;;;;;;;5018805;28;20029;-81
2021/08/22 00:12:40;;;;;;;26.48;13.43;;;;;;;;;;5034411;28;20018;-81
2021/08/22 00:15:05;;;;;;;23.25;12.80;;;;;;;;;;5032949;28;20392;-82
2021/08/22 00:17:31;;;;;;;23.38;12.23;;;;;;;;;;5030369;28;20492;-82
2021/08/22 00:19:56;;;;;;;23.73;12.55;;;;;;;;;;5025776;28;20028;-82
2021/08/22 00:22:21;;;;;;;28.52;13.10;;;;;;;;;;5034494;28;20029;-82
2021/08/22 00:24:46;;;;;;;20.40;12.38;;;;;;;;;;5035504;28;20018;-82
2021/08/22 00:27:12;;;;;;;23.00;12.98;;;;;;;;;;5030515;28;20032;-82
2021/08/22 00:29:37;;;;;;;28.08;12.35;;;;;;;;;;5033406;28;20017;-81
2021/08/22 00:32:02;;;;;;;23.42;12.98;;;;;;;;;;5033030;28;20021;-81
2021/08/22 00:34:28;;;;;;;22.63;12.15;;;;;;;;;;5014687;28;20469;-82
2021/08/22 00:36:54;;;;;;;20.73;12.55;;;;;;;;;;5026176;28;20019;-82
2021/08/22 00:39:20;;;;;;;22.20;12.77;;;;;;;;;;5034672;28;20100;-82
2021/08/22 00:41:45;;;;;;;25.35;13.18;;;;;;;;;;5031317;28;20065;-82
2021/08/22 00:44:10;;;;;;;26.42;12.75;;;;;;;;;;5028905;28;20465;-82
2021/08/22 00:46:35;;;;;;;29.73;13.27;;;;;;;;;;5026701;28;20034;-82
2021/08/22 00:49:00;;;;;;;24.92;13.10;;;;;;;;;;5025103;28;20355;-82
2021/08/22 00:51:26;;;;;;;30.33;14.32;;;;;;;;;;5018488;28;20010;-81
2021/08/22 00:53:51;;;;;;;33.33;13.73;;;;;;;;;;5033546;28;20381;-81
2021/08/22 00:56:16;;;;;;;34.33;14.63;;;;;;;;;;5033345;28;20021;-81
2021/08/22 00:58:45;;;;;;;30.50;14.93;;;;;;;;;;5033537;28;20080;-81
2021/08/22 01:01:31;;;;;;;30.80;13.85;;;;;;;;;;5031262;28;20488;-83
2021/08/22 01:04:15;;;;;;;29.58;13.00;;;;;;;;;;5014409;28;20398;-82
2021/08/22 01:06:46;;;;;;;30.20;13.90;;;;;;;;;;5033294;28;20024;-81
2021/08/22 01:09:17;;;;;;;27.43;13.67;;;;;;;;;;5033245;28;20112;-82
2021/08/22 01:11:43;;;;;;;35.95;15.68;;;;;;;;;;5030793;28;20028;-82
2021/08/22 01:14:13;;;;;;;33.75;15.43;;;;;;;;;;5033090;28;20018;-82
2021/08/22 01:16:45;;;;;;;37.42;16.13;;;;;;;;;;5025373;28;20393;-82
2021/08/22 01:19:16;;;;;;;40.83;15.88;;;;;;;;;;5033707;28;20028;-81
2021/08/22 01:21:42;;;;;;;45.23;17.03;;;;;;;;;;5027531;28;20026;-82
2021/08/22 01:24:08;;;;;;;39.10;16.48;;;;;;;;;;5020555;28;20108;-81
2021/08/22 01:26:35;;;;;;;41.65;17.88;;;;;;;;;;5031037;28;20030;-82
2021/08/22 01:29:01;;;;;;;43.30;18.75;;;;;;;;;;5031056;28;20040;-81
2021/08/22 01:31:29;;;;;;;43.45;18.35;;;;;;;;;;5033031;28;20017;-82
2021/08/22 01:33:56;;;;;;;50.33;20.10;;;;;;;;;;5022516;28;20024;-81
2021/08/22 01:36:22;;;;;;;45.22;18.77;;;;;;;;;;5023843;28;20485;-82
2021/08/22 01:38:48;;;;;;;46.75;19.88;;;;;;;;;;5027172;28;20026;-82
2021/08/22 01:41:14;;;;;;;48.88;20.55;;;;;;;;;;5032702;28;20020;-82
2021/08/22 01:43:39;;;;;;;47.80;20.90;;;;;;;;;;5032541;28;20060;-82
2021/08/22 01:46:06;;;;;;;47.42;18.35;;;;;;;;;;5032615;28;20366;-82
2021/08/22 01:48:32;;;;;;;45.20;19.08;;;;;;;;;;5032388;28;20364;-82
2021/08/22 01:50:58;;;;;;;52.42;20.30;;;;;;;;;;5032366;28;20024;-82
2021/08/22 01:53:23;;;;;;;49.90;20.58;;;;;;;;;;5032154;28;20026;-82
2021/08/22 01:55:49;;;;;;;53.63;20.15;;;;;;;;;;5021062;28;20021;-82
2021/08/22 01:58:14;;;;;;;53.92;20.73;;;;;;;;;;5032216;28;20026;-82
2021/08/22 02:00:39;;;;;;;52.92;22.38;;;;;;;;;;5032306;28;20427;-82
2021/08/22 02:03:09;;;;;;;50.28;21.15;;;;;;;;;;5033758;28;20449;-81
2021/08/22 02:05:37;;;;;;;52.92;21.77;;;;;;;;;;5029200;28;20025;-81
2021/08/22 02:08:07;;;;;;;47.47;20.48;;;;;;;;;;5031626;28;20022;-82
2021/08/22 02:10:34;;;;;;;44.50;18.92;;;;;;;;;;5022067;28;20033;-81
2021/08/22 02:13:00;;;;;;;45.22;18.63;;;;;;;;;;5026678;28;20019;-82
2021/08/22 02:15:29;;;;;;;45.83;19.17;;;;;;;;;;5032304;28;20096;-82
2021/08/22 02:18:02;;;;;;;43.08;18.10;;;;;;;;;;5028254;28;20017;-83
2021/08/22 02:20:27;;;;;;;37.95;17.30;;;;;;;;;;5032163;28;20022;-83
2021/08/22 02:22:54;;;;;;;32.50;15.10;;;;;;;;;;5032015;28;20119;-82
2021/08/22 02:25:20;;;;;;;36.45;16.63;;;;;;;;;;5032898;28;20381;-82
2021/08/22 02:27:45;;;;;;;42.65;16.48;;;;;;;;;;5065174;28;20025;-82
2021/08/22 02:30:11;;;;;;;32.28;15.07;;;;;;;;;;5031828;28;20112;-82
2021/08/22 02:32:36;;;;;;;36.60;14.57;;;;;;;;;;5031932;28;20053;-82
2021/08/22 02:35:02;;;;;;;32.35;14.57;;;;;;;;;;5028998;28;20462;-82
2021/08/22 02:37:28;;;;;;;29.70;13.48;;;;;;;;;;5031908;28;20025;-82
2021/08/22 02:39:53;;;;;;;30.27;13.90;;;;;;;;;;5031632;28;20033;-82
2021/08/22 02:42:18;;;;;;;29.92;12.77;;;;;;;;;;5031574;28;20355;-82
2021/08/22 02:44:44;;;;;;;33.03;14.60;;;;;;;;;;5031800;28;20028;-82
2021/08/22 02:47:09;;;;;;;35.25;15.20;;;;;;;;;;5029577;28;20029;-82
2021/08/22 02:49:35;;;;;;;39.17;15.57;;;;;;;;;;5032872;28;20104;-83
2021/08/22 02:52:00;;;;;;;37.35;15.30;;;;;;;;;;5017396;28;20087;-82
2021/08/22 02:54:25;;;;;;;34.65;15.52;;;;;;;;;;5031619;28;20152;-82
2021/08/22 02:56:50;;;;;;;37.78;15.70;;;;;;;;;;5028459;28;20496;-83
2021/08/22 02:59:16;;;;;;;41.45;17.10;;;;;;;;;;5017891;28;20026;-82
2021/08/22 03:01:41;;;;;;;39.15;15.77;;;;;;;;;;5029176;28;20026;-82
2021/08/22 03:04:06;;;;;;;40.08;16.35;;;;;;;;;;5058492;28;20028;-83
2021/08/22 03:06:32;;;;;;;39.92;17.52;;;;;;;;;;5021655;28;20057;-82
2021/08/22 03:08:57;;;;;;;35.13;16.98;;;;;;;;;;5032287;28;20030;-82
2021/08/22 03:11:22;;;;;;;41.92;16.75;;;;;;;;;;5031200;28;20503;-82
2021/08/22 03:13:48;;;;;;;41.35;18.30;;;;;;;;;;5017233;28;20049;-82
2021/08/22 03:16:13;;;;;;;38.83;17.02;;;;;;;;;;5029350;28;20030;-82
2021/08/22 03:18:38;;;;;;;50.05;17.77;;;;;;;;;;5023760;28;20040;-82
2021/08/22 03:21:04;;;;;;;29.75;15.40;;;;;;;;;;5029121;28;20100;-82
2021/08/22 03:23:29;;;;;;;36.00;15.75;;;;;;;;;;5020693;28;20036;-82
2021/08/22 03:25:54;;;;;;;35.75;16.25;;;;;;;;;;5026695;28;20060;-82
2021/08/22 03:28:20;;;;;;;38.55;17.60;;;;;;;;;;5031069;28;20026;-82
2021/08/22 03:30:45;;;;;;;34.45;16.05;;;;;;;;;;5031312;28;20063;-82
2021/08/22 03:33:10;;;;;;;40.90;16.67;;;;;;;;;;5031929;28;20029;-82
2021/08/22 03:35:35;;;;;;;37.83;16.85;;;;;;;;;;5028045;28;20025;-82
2021/08/22 03:38:01;;;;;;;37.63;15.52;;;;;;;;;;5031018;28;20009;-82
2021/08/22 03:40:26;;;;;;;38.00;16.45;;;;;;;;;;5031045;28;20469;-82
2021/08/22 03:42:51;;;;;;;38.38;16.80;;;;;;;;;;5032369;28;20449;-82
2021/08/22 03:45:19;;;;;;;33.45;16.10;;;;;;;;;;5030332;28;20075;-82
2021/08/22 03:47:45;;;;;;;40.03;17.60;;;;;;;;;;5009807;28;20100;-82
2021/08/22 03:50:10;;;;;;;35.90;16.08;;;;;;;;;;5028842;28;20108;-82
2021/08/22 03:52:35;;;;;;;35.53;16.48;;;;;;;;;;5026871;28;20491;-82
2021/08/22 03:55:00;;;;;;;37.58;16.23;;;;;;;;;;5029320;28;20516;-82
2021/08/22 03:57:26;;;;;;;39.95;16.42;;;;;;;;;;5024069;28;20018;-82
2021/08/22 03:59:51;;;;;;;35.55;16.02;;;;;;;;;;5011261;28;20030;-82
2021/08/22 04:02:16;;;;;;;40.65;16.45;;;;;;;;;;5022792;28;20041;-82
2021/08/22 04:04:41;;;;;;;35.08;16.25;;;;;;;;;;5018022;28;20416;-82
2021/08/22 04:07:06;;;;;;;37.80;16.23;;;;;;;;;;5029766;28;20037;-81
2021/08/22 04:09:32;;;;;;;35.58;15.98;;;;;;;;;;5033226;28;20428;-82
2021/08/22 04:11:57;;;;;;;38.40;15.93;;;;;;;;;;5033308;28;20025;-82
2021/08/22 04:14:22;;;;;;;37.47;16.38;;;;;;;;;;5032570;28;20025;-82
2021/08/22 04:16:48;;;;;;;40.55;16.92;;;;;;;;;;5025352;28;20049;-82
2021/08/22 04:19:13;;;;;;;43.80;17.10;;;;;;;;;;5024469;28;20033;-82
2021/08/22 04:21:39;;;;;;;40.10;16.90;;;;;;;;;;5031848;28;20017;-82
2021/08/22 04:24:05;;;;;;;30.33;15.60;;;;;;;;;;5028602;28;20389;-82
2021/08/22 04:26:30;;;;;;;38.50;14.90;;;;;;;;;;5030198;28;20022;-82
2021/08/22 04:28:55;;;;;;;36.80;16.90;;;;;;;;;;5026719;28;20028;-82
2021/08/22 04:31:21;;;;;;;34.42;16.23;;;;;;;;;;5035192;28;20022;-82
2021/08/22 04:33:46;;;;;;;31.65;16.38;;;;;;;;;;5033736;28;20044;-83
2021/08/22 04:36:11;;;;;;;35.95;15.50;;;;;;;;;;5035085;28;20014;-82
2021/08/22 04:38:36;;;;;;;34.85;15.05;;;;;;;;;;5034069;28;20045;-81
2021/08/22 04:41:02;;;;;;;33.47;14.95;;;;;;;;;;5030580;28;20050;-82
2021/08/22 04:43:27;;;;;;;33.80;15.80;;;;;;;;;;5031313;28;20080;-82
2021/08/22 04:45:52;;;;;;;35.17;15.30;;;;;;;;;;5033678;28;20029;-82
2021/08/22 04:48:17;;;;;;;33.38;14.68;;;;;;;;;;5033025;28;20028;-82
2021/08/22 04:50:43;;;;;;;34.70;14.77;;;;;;;;;;5020111;28;20025;-82
2021/08/22 04:53:08;;;;;;;30.25;14.35;;;;;;;;;;5021438;28;20022;-81
2021/08/22 04:55:33;;;;;;;30.05;14.48;;;;;;;;;;5031311;28;20014;-82
2021/08/22 04:57:58;;;;;;;29.58;13.93;;;;;;;;;;5034892;28;20365;-82
2021/08/22 05:00:23;;;;;;;29.13;14.48;;;;;;;;;;5033594;28;20056;-81
2021/08/22 05:02:49;;;;;;;28.92;14.13;;;;;;;;;;5027092;28;20052;-82
2021/08/22 05:05:14;;;;;;;28.55;13.90;;;;;;;;;;5031370;28;20053;-82
2021/08/22 05:07:39;;;;;;;24.02;13.07;;;;;;;;;;5032162;28;20461;-82
2021/08/22 05:10:05;;;;;;;24.83;12.95;;;;;;;;;;5032044;28;20032;-82
2021/08/22 05:12:30;;;;;;;32.45;14.75;;;;;;;;;;5031706;28;20021;-81
2021/08/22 05:14:55;;;;;;;27.35;14.48;;;;;;;;;;5031405;28;20024;-82
2021/08/22 05:17:20;;;;;;;29.65;13.80;;;;;;;;;;5030947;28;20021;-82
2021/08/22 05:19:45;;;;;;;25.92;13.05;;;;;;;;;;5015334;28;20497;-82
2021/08/22 05:22:11;;;;;;;28.40;13.25;;;;;;;;;;5024852;28;20469;-82
2021/08/22 05:24:36;;;;;;;25.58;13.70;;;;;;;;;;5030758;28;20025;-82
2021/08/22 05:27:01;;;;;;;27.15;13.30;;;;;;;;;;5029011;28;20033;-82
2021/08/22 05:29:27;;;;;;;26.88;13.43;;;;;;;;;;5015993;28;20032;-82
2021/08/22 05:31:52;;;;;;;27.50;13.27;;;;;;;;;;5027306;28;20029;-82
2021/08/22 05:34:17;;;;;;;29.40;13.32;;;;;;;;;;5032441;28;20030;-82
2021/08/22 05:36:43;;;;;;;25.65;13.63;;;;;;;;;;5033289;28;20033;-82
2021/08/22 05:39:08;;;;;;;24.10;12.15;;;;;;;;;;5019143;28;20382;-82
2021/08/22 05:41:34;;;;;;;29.33;13.70;;;;;;;;;;5011716;28;20504;-82
2021/08/22 05:43:59;;;;;;;29.50;13.93;;;;;;;;;;5013058;28;20508;-81
2021/08/22 05:46:24;;;;;;;26.95;14.20;;;;;;;;;;5018404;28;20068;-82
2021/08/22 05:48:50;;;;;;;29.42;13.90;;;;;;;;;;5013662;28;20032;-82
2021/08/22 05:51:19;;;;;;;30.40;13.90;;;;;;;;;;5015316;28;20033;-82
2021/08/22 05:53:45;;;;;;;27.77;12.57;;;;;;;;;;5012870;28;20026;-83
2021/08/22 05:56:10;;;;;;;27.00;13.07;;;;;;;;;;5014141;28;20044;-82
2021/08/22 05:58:36;;;;;;;25.27;12.43;;;;;;;;;;5020879;28;20025;-82
2021/08/22 06:01:01;;;;;;;22.98;13.27;;;;;;;;;;5010367;28;20075;-82
2021/08/22 06:03:26;;;;;;;23.60;12.48;;;;;;;;;;5019625;28;20025;-82
2021/08/22 06:05:53;;;;;;;24.38;12.05;;;;;;;;;;5019651;28;20029;-82
2021/08/22 06:08:18;;;;;;;26.67;12.73;;;;;;;;;;5015089;28;20397;-82
2021/08/22 06:10:43;;;;;;;27.17;12.60;;;;;;;;;;5019702;28;20112;-82
2021/08/22 06:13:08;;;;;;;25.05;12.65;;;;;;;;;;5013173;28;20025;-81
2021/08/22 06:15:34;;;;;;;22.70;12.05;;;;;;;;;;5012401;28;20101;-82
2021/08/22 06:17:59;;;;;;;25.02;13.43;;;;;;;;;;5017948;28;20469;-82
2021/08/22 06:20:24;;;;;;;28.92;13.38;;;;;;;;;;5023910;28;20028;-82
2021/08/22 06:22:49;;;;;;;22.13;12.10;;;;;;;;;;5018193;28;20032;-81
2021/08/22 06:25:14;;;;;;;26.63;11.52;;;;;;;;;;5032062;28;20385;-82
2021/08/22 06:27:39;;;;;;;24.40;12.18;;;;;;;;;;5018435;28;20030;-81
2021/08/22 06:30:05;;;;;;;22.00;12.65;;;;;;;;;;5029157;28;20120;-82
2021/08/22 06:32:30;;;;;;;23.20;11.68;;;;;;;;;;5024673;28;20104;-82
2021/08/22 06:34:56;;;;;;;23.90;11.88;;;;;;;;;;5021193;28;20600;-82
2021/08/22 06:37:21;;;;;;;20.15;10.52;;;;;;;;;;5031966;28;20055;-82
2021/08/22 06:39:48;;;;;;;20.35;11.02;;;;;;;;;;5033034;28;20104;-81
2021/08/22 06:42:13;;;;;;;22.75;11.18;;;;;;;;;;5025960;28;20025;-81
2021/08/22 06:44:39;;;;;;;19.67;10.43;;;;;;;;;;5032866;28;20032;-81
2021/08/22 06:47:05;;;;;;;20.45;11.50;;;;;;;;;;5020222;28;20032;-81
2021/08/22 06:49:31;;;;;;;17.73;9.48;;;;;;;;;;5021658;28;20477;-82
2021/08/22 06:51:56;;;;;;;15.02;9.27;;;;;;;;;;5021429;28;20022;-81
2021/08/22 06:54:21;;;;;;;19.52;9.45;;;;;;;;;;5031400;28;20017;-82
2021/08/22 06:56:46;;;;;;;16.88;9.55;;;;;;;;;;5018857;28;20425;-82
2021/08/22 06:59:11;;;;;;;17.70;8.52;;;;;;;;;;4998113;28;20056;-82
2021/08/22 07:01:37;;;;;;;15.50;8.90;;;;;;;;;;5024630;28;20071;-83
2021/08/22 07:04:02;;;;;;;18.58;8.82;;;;;;;;;;5029043;28;20059;-82
2021/08/22 07:06:27;;;;;;;14.88;8.40;;;;;;;;;;5031312;28;20021;-81
2021/08/22 07:08:52;;;;;;;17.77;8.60;;;;;;;;;;5017011;28;20033;-81
2021/08/22 07:11:18;;;;;;;11.45;8.02;;;;;;;;;;5018158;28;20071;-82
2021/08/22 07:13:43;;;;;;;14.45;7.28;;;;;;;;;;5031139;28;20024;-82
2021/08/22 07:16:08;;;;;;;15.88;8.00;;;;;;;;;;5018253;28;20481;-82
2021/08/22 07:18:33;;;;;;;14.48;7.47;;;;;;;;;;5031162;28;20036;-81
2021/08/22 07:20:58;;;;;;;11.70;6.32;;;;;;;;;;5030281;28;20026;-82
2021/08/22 07:23:24;;;;;;;12.45;6.53;;;;;;;;;;5014610;28;20056;-82
2021/08/22 07:25:51;;;;;;;14.35;5.53;;;;;;;;;;5026048;28;20452;-82
2021/08/22 07:28:16;;;;;;;10.82;4.65;;;;;;;;;;5012099;28;20026;-82
2021/08/22 07:30:41;;;;;;;10.57;5.63;;;;;;;;;;5017537;28;20014;-82
2021/08/22 07:33:06;;;;;;;11.60;5.20;;;;;;;;;;5026811;28;20044;-82
2021/08/22 07:35:31;;;;;;;8.82;4.82;;;;;;;;;;5031229;28;20026;-81
2021/08/22 07:37:57;;;;;;;11.07;5.03;;;;;;;;;;5015206;28;20020;-82
2021/08/22 07:40:22;;;;;;;13.07;5.47;;;;;;;;;;5011406;28;20508;-82
2021/08/22 07:42:47;;;;;;;9.07;4.65;;;;;;;;;;5042248;28;21336;-81
2021/08/22 07:45:12;;;;;;;11.82;4.82;;;;;;;;;;5014245;28;20029;-81
2021/08/22 07:47:37;;;;;;;13.50;4.88;;;;;;;;;;5000130;28;20167;-83
2021/08/22 07:50:03;;;;;;;11.13;5.63;;;;;;;;;;5013506;28;20033;-82
2021/08/22 07:52:28;;;;;;;10.68;4.30;;;;;;;;;;5013651;28;20017;-83
2021/08/22 07:54:53;;;;;;;15.48;5.15;;;;;;;;;;5010927;28;20018;-81
2021/08/22 07:57:18;;;;;;;8.20;4.72;;;;;;;;;;5010001;28;20029;-82
2021/08/22 07:59:44;;;;;;;12.00;3.88;;;;;;;;;;5014923;28;20462;-82
2021/08/22 08:02:09;;;;;;;9.82;4.18;;;;;;;;;;5013743;28;20018;-83
2021/08/22 08:04:35;;;;;;;9.07;4.28;;;;;;;;;;5014408;28;20025;-82
2021/08/22 08:07:00;;;;;;;8.30;4.07;;;;;;;;;;5012880;28;20116;-82
2021/08/22 08:09:25;;;;;;;11.98;4.65;;;;;;;;;;5024226;28;20049;-82
2021/08/22 08:11:50;;;;;;;11.50;3.80;;;;;;;;;;5012460;28;20032;-82
2021/08/22 08:14:16;;;;;;;11.55;4.55;;;;;;;;;;5012314;28;20040;-83
2021/08/22 08:16:41;;;;;;;10.18;4.00;;;;;;;;;;5044739;28;20492;-82
2021/08/22 08:19:06;;;;;;;11.55;3.80;;;;;;;;;;5014515;28;20470;-82
2021/08/22 08:21:31;;;;;;;13.48;4.05;;;;;;;;;;5013641;28;20022;-82
2021/08/22 08:23:56;;;;;;;12.35;3.80;;;;;;;;;;5011962;28;20065;-82
2021/08/22 08:26:22;;;;;;;10.00;4.07;;;;;;;;;;4993008;28;20036;-82
2021/08/22 08:28:47;;;;;;;11.95;4.18;;;;;;;;;;5053663;28;20052;-82
2021/08/22 08:31:13;;;;;;;11.98;4.05;;;;;;;;;;5012598;28;20546;-83
2021/08/22 08:33:38;;;;;;;10.68;3.60;;;;;;;;;;5015862;28;20022;-82
2021/08/22 08:36:04;;;;;;;9.80;3.50;;;;;;;;;;5013140;28;20397;-82
2021/08/22 08:38:29;;;;;;;7.82;3.63;;;;;;;;;;5013537;28;20030;-82
2021/08/22 08:40:54;;;;;;;7.88;3.65;;;;;;;;;;5013817;28;20025;-83
2021/08/22 08:43:22;;;;;;;7.15;3.60;;;;;;;;;;5025010;28;20030;-82
2021/08/22 08:45:50;;;;;;;8.57;3.28;;;;;;;;;;5024561;28;20033;-83
2021/08/22 08:48:20;;;;;;;16.45;4.10;;;;;;;;;;5021094;28;20041;-82
2021/08/22 08:50:55;;;;;;;13.05;3.50;;;;;;;;;;5051021;28;20009;-82
2021/08/22 08:53:22;;;;;;;6.80;3.22;;;;;;;;;;5029748;28;20116;-82
2021/08/22 08:55:48;;;;;;;13.98;2.63;;;;;;;;;;5023273;28;20064;-82
2021/08/22 08:58:13;;;;;;;10.82;3.45;;;;;;;;;;5017836;28;20032;-83
2021/08/22 09:00:39;;;;;;;7.80;3.63;;;;;;;;;;5031383;28;20128;-83
2021/08/22 09:03:05;;;;;;;10.95;3.42;;;;;;;;;;5030791;28;20436;-83
2021/08/22 09:05:33;;;;;;;8.75;3.35;;;;;;;;;;5026213;28;20033;-83
2021/08/22 09:08:17;;;;;;;9.93;3.55;;;;;;;;;;5022175;28;20049;-82
2021/08/22 09:11:03;;;;;;;12.77;4.13;;;;;;;;;;5031781;28;20037;-83
2021/08/22 09:13:28;;;;;;;11.05;3.67;;;;;;;;;;4993081;28;20080;-82
2021/08/22 09:16:05;;;;;;;8.10;3.03;;;;;;;;;;5025800;28;20441;-82
2021/08/22 09:18:50;;;;;;;11.05;3.80;;;;;;;;;;5029832;28;20381;-83
2021/08/22 09:21:27;;;;;;;11.50;3.42;;;;;;;;;;5020326;28;20511;-82
2021/08/22 09:24:05;;;;;;;12.45;2.95;;;;;;;;;;5032766;28;20384;-82
2021/08/22 09:26:39;;;;;;;6.82;2.15;;;;;;;;;;5023966;28;20026;-83
2021/08/22 09:29:23;;;;;;;6.47;2.80;;;;;;;;;;5048747;28;20053;-82
2021/08/22 09:32:07;;;;;;;8.63;3.08;;;;;;;;;;5011358;28;20526;-83
2021/08/22 09:34:49;;;;;;;8.90;3.22;;;;;;;;;;5016099;28;20021;-83
2021/08/22 09:37:50;;;;;;;6.70;2.45;;;;;;;;;;5045796;28;20034;-83
2021/08/22 09:40:24;;;;;;;6.07;2.33;;;;;;;;;;4963942;28;20028;-83
2021/08/22 09:43:08;;;;;;;6.00;2.50;;;;;;;;;;5002695;28;20022;-83
2021/08/22 09:45:52;;;;;;;6.70;2.05;;;;;;;;;;5051794;28;20498;-83
2021/08/22 09:48:36;;;;;;;5.00;1.98;;;;;;;;;;5016042;28;20018;-83
2021/08/22 09:51:08;;;;;;;11.73;2.15;;;;;;;;;;5020891;28;20018;-83
2021/08/22 09:53:57;;;;;;;3.05;2.22;;;;;;;;;;5017363;28;20036;-83
2021/08/22 09:56:35;;;;;;;5.05;2.40;;;;;;;;;;5028529;28;20036;-84
2021/08/22 09:59:39;;;;;;;5.07;1.83;;;;;;;;;;5021669;28;20124;-83
2021/08/22 10:02:07;;;;;;;12.10;1.92;;;;;;;;;;4967506;28;20031;-84
2021/08/22 10:04:32;;;;;;;7.47;2.60;;;;;;;;;;4944321;28;20142;-83
2021/08/22 10:07:03;;;;;;;7.18;2.60;;;;;;;;;;4998625;28;20525;-83
2021/08/22 10:09:36;;;;;;;5.47;2.22;;;;;;;;;;5038274;28;20044;-83
2021/08/22 10:12:01;;;;;;;6.80;2.38;;;;;;;;;;5024262;28;20068;-83
2021/08/22 10:14:27;;;;;;;5.72;2.40;;;;;;;;;;5026828;28;20025;-83
2021/08/22 10:16:53;;;;;;;4.40;2.00;;;;;;;;;;5016986;28;20026;-83
2021/08/22 10:19:25;;;;;;;5.75;2.13;;;;;;;;;;5012968;28;20026;-83
2021/08/22 10:22:20;;;;;;;6.88;2.53;;;;;;;;;;5052779;28;20033;-83
2021/08/22 10:24:46;;;;;;;5.60;2.15;;;;;;;;;;5003448;28;20032;-83
2021/08/22 10:27:34;;;;;;;8.50;2.63;;;;;;;;;;5015780;28;20025;-82
2021/08/22 10:30:03;;;;;;;4.45;2.17;;;;;;;;;;5044356;28;20366;-83
2021/08/22 10:32:28;;;;;;;5.90;2.38;;;;;;;;;;5012990;28;20022;-82
2021/08/22 10:35:12;;;;;;;5.65;2.60;;;;;;;;;;5017509;28;20149;-81
2021/08/22 10:37:41;;;;;;;4.13;2.05;;;;;;;;;;5057333;28;20025;-82
2021/08/22 10:40:21;;;;;;;8.02;2.28;;;;;;;;;;5018659;28;20029;-82
2021/08/22 10:43:05;;;;;;;8.80;2.83;;;;;;;;;;5055040;28;20029;-82
2021/08/22 10:45:39;;;;;;;4.50;2.03;;;;;;;;;;5022456;28;20393;-83
2021/08/22 10:48:05;;;;;;;3.85;2.33;;;;;;;;;;5023343;28;20095;-82
2021/08/22 10:50:30;;;;;;;7.10;2.30;;;;;;;;;;5014301;28;20021;-82
2021/08/22 10:53:22;;;;;;;3.72;2.53;;;;;;;;;;5011292;28;20018;-82
2021/08/22 10:55:47;;;;;;;7.18;2.28;;;;;;;;;;5046686;28;20465;-83
2021/08/22 10:58:12;;;;;;;6.97;2.75;;;;;;;;;;5011525;28;20045;-82
2021/08/22 11:00:39;;;;;;;5.30;2.55;;;;;;;;;;5015168;28;20021;-82
2021/08/22 11:03:05;;;;;;;4.07;2.00;;;;;;;;;;5021634;28;20029;-82
2021/08/22 11:05:31;;;;;;;3.85;2.22;;;;;;;;;;5016942;28;20030;-82
2021/08/22 11:08:11;;;;;;;4.88;1.95;;;;;;;;;;5023285;28;20029;-82
2021/08/22 11:10:37;;;;;;;5.60;2.08;;;;;;;;;;5026962;28;20018;-82
2021/08/22 11:13:02;;;;;;;5.07;2.30;;;;;;;;;;5020532;28;20072;-82
2021/08/22 11:15:28;;;;;;;4.88;1.77;;;;;;;;;;5011748;28;20392;-82
2021/08/22 11:18:03;;;;;;;2.78;1.67;;;;;;;;;;5020055;28;20017;-82
2021/08/22 11:20:29;;;;;;;2.72;1.58;;;;;;;;;;5029271;28;20017;-82
2021/08/22 11:23:07;;;;;;;2.33;1.58;;;;;;;;;;5037795;28;20043;-82
2021/08/22 11:25:33;;;;;;;3.50;1.90;;;;;;;;;;5024457;28;20022;-81
2021/08/22 11:28:02;;;;;;;4.90;1.60;;;;;;;;;;5024304;28;20430;-82
2021/08/22 11:30:28;;;;;;;5.03;1.70;;;;;;;;;;5020035;28;20022;-82
2021/08/22 11:32:54;;;;;;;4.65;1.80;;;;;;;;;;5034185;28;20362;-81
2021/08/22 11:35:21;;;;;;;5.40;2.10;;;;;;;;;;5024742;28;20024;-81
2021/08/22 11:37:46;;;;;;;2.70;2.00;;;;;;;;;;5016972;28;20017;-82
2021/08/22 11:40:13;;;;;;;4.78;1.95;;;;;;;;;;5020369;28;20373;-82
2021/08/22 11:42:42;;;;;;;2.55;1.60;;;;;;;;;;5064425;28;20499;-82
2021/08/22 11:45:09;;;;;;;3.78;1.70;;;;;;;;;;5035264;28;20017;-82
2021/08/22 11:47:35;;;;;;;3.00;1.90;;;;;;;;;;5020179;28;20021;-82
2021/08/22 11:50:01;;;;;;;3.28;1.52;;;;;;;;;;5021607;28;20116;-82
2021/08/22 11:52:26;;;;;;;2.65;1.40;;;;;;;;;;5021802;28;20438;-82
2021/08/22 11:54:51;;;;;;;3.08;1.40;;;;;;;;;;5020369;28;20018;-82
2021/08/22 11:57:21;;;;;;;7.30;1.60;;;;;;;;;;5022358;28;20060;-81
2021/08/22 11:59:59;;;;;;;3.67;1.98;;;;;;;;;;5028030;28;20063;-81
2021/08/22 12:02:27;;;;;;;3.10;1.60;;;;;;;;;;5068675;28;20025;-81
2021/08/22 12:05:11;;;;;;;4.72;1.90;;;;;;;;;;5037188;28;20025;-81
2021/08/22 12:07:37;;;;;;;5.57;2.00;;;;;;;;;;5018838;28;20478;-81
2021/08/22 12:10:02;;;;;;;3.05;1.80;;;;;;;;;;5029420;28;20024;-82
2021/08/22 12:12:27;;;;;;;3.05;1.80;;;;;;;;;;5022017;28;20112;-82
2021/08/22 12:14:52;;;;;;;3.72;1.80;;;;;;;;;;5037114;28;20518;-82
2021/08/22 12:17:24;;;;;;;4.97;2.53;;;;;;;;;;5019113;28;20033;-82
2021/08/22 12:19:49;;;;;;;4.07;1.95;;;;;;;;;;5030334;28;20036;-82
2021/08/22 12:22:14;;;;;;;5.90;1.73;;;;;;;;;;5023869;28;20034;-81
2021/08/22 12:24:44;;;;;;;4.00;1.88;;;;;;;;;;5029454;28;20068;-84
2021/08/22 12:27:10;;;;;;;3.47;2.20;;;;;;;;;;5019597;28;20391;-83
2021/08/22 12:29:35;;;;;;;2.72;1.38;;;;;;;;;;5027070;28;20021;-83
2021/08/22 12:32:08;;;;;;;4.68;2.30;;;;;;;;;;5032050;28;20469;-83
2021/08/22 12:34:33;;;;;;;;;;;;;;;;;;5018402;28;20048;-83
2021/08/22 12:37:06;;;;;;;6.47;1.70;;;;;;;;;;5059980;28;19948;-83
2021/08/22 12:39:32;;;;;;;3.40;1.67;;;;;;;;;;5031457;28;20431;-83
2021/08/22 12:41:57;;;;;;;3.72;1.60;;;;;;;;;;5029396;28;20112;-83
2021/08/22 12:44:23;;;;;;;2.50;1.60;;;;;;;;;;5024133;28;20017;-83
2021/08/22 12:46:49;;;;;;;4.40;1.38;;;;;;;;;;5029624;28;20470;-83
2021/08/22 12:49:15;;;;;;;2.35;1.40;;;;;;;;;;5034097;28;20520;-84
2021/08/22 12:51:50;;;;;;;3.88;1.40;;;;;;;;;;5029638;28;20080;-83
2021/08/22 12:54:16;;;;;;;2.78;1.38;;;;;;;;;;5052585;28;20033;-83
2021/08/22 12:56:41;;;;;;;4.38;1.42;;;;;;;;;;5033889;28;20028;-83
2021/08/22 12:59:06;;;;;;;3.67;1.77;;;;;;;;;;5027056;28;20017;-83
2021/08/22 13:01:31;;;;;;;4.22;2.05;;;;;;;;;;5022196;28;20397;-83
2021/08/22 13:03:57;;;;;;;3.42;1.80;;;;;;;;;;5018655;28;20021;-83
2021/08/22 13:06:22;;;;;;;2.80;1.92;;;;;;;;;;5024855;28;20056;-83
2021/08/22 13:08:48;;;;;;;7.15;2.08;;;;;;;;;;5034385;28;20738;-83
2021/08/22 13:11:14;;;;;;;4.13;2.47;;;;;;;;;;5032329;28;20053;-82
2021/08/22 13:13:39;;;;;;;6.07;2.95;;;;;;;;;;5014028;28;20041;-83
2021/08/22 13:16:04;;;;;;;5.95;2.75;;;;;;;;;;5033568;28;20005;-83
2021/08/22 13:18:33;;;;;;;4.85;1.85;;;;;;;;;;5026844;28;20026;-83
2021/08/22 13:20:59;;;;;;;4.50;2.50;;;;;;;;;;5030647;28;20028;-83
2021/08/22 13:23:24;;;;;;;3.72;1.73;;;;;;;;;;5025499;28;20381;-83
2021/08/22 13:25:50;;;;;;;4.45;1.60;;;;;;;;;;5033199;28;20017;-83
2021/08/22 13:28:15;;;;;;;4.93;1.98;;;;;;;;;;5025574;28;20032;-83
2021/08/22 13:30:40;;;;;;;3.65;2.00;;;;;;;;;;5033507;28;20424;-83
2021/08/22 13:33:05;;;;;;;4.30;1.92;;;;;;;;;;5026779;28;20100;-83
2021/08/22 13:35:30;;;;;;;4.80;2.17;;;;;;;;;;5012258;28;20022;-83
2021/08/22 13:37:56;;;;;;;5.97;2.42;;;;;;;;;;5013618;28;20072;-83
2021/08/22 13:40:21;;;;;;;5.32;2.80;;;;;;;;;;5017598;28;20065;-83
2021/08/22 13:42:46;;;;;;;4.80;3.13;;;;;;;;;;5014027;28;20048;-83
2021/08/22 13:45:12;;;;;;;8.38;2.90;;;;;;;;;;5024678;28;21574;-83
2021/08/22 13:47:37;;;;;;;5.40;3.58;;;;;;;;;;5027005;28;20032;-83
2021/08/22 13:50:03;;;;;;;9.65;3.97;;;;;;;;;;5019203;28;20108;-82
2021/08/22 13:52:28;;;;;;;8.13;4.10;;;;;;;;;;5024077;28;20062;-82
2021/08/22 13:54:53;;;;;;;5.50;3.65;;;;;;;;;;5024857;28;20063;-83
2021/08/22 13:57:19;;;;;;;8.80;4.40;;;;;;;;;;5022777;28;20035;-83
2021/08/22 13:59:44;;;;;;;7.82;4.25;;;;;;;;;;5012412;28;20021;-81
2021/08/22 14:02:09;;;;;;;9.13;5.10;;;;;;;;;;5014845;28;20022;-82
2021/08/22 14:04:34;;;;;;;10.90;5.55;;;;;;;;;;5014462;28;20022;-82
2021/08/22 14:06:59;;;;;;;12.50;5.10;;;;;;;;;;5047528;28;20072;-82
2021/08/22 14:09:25;;;;;;;8.35;4.70;;;;;;;;;;5012574;28;20026;-82
2021/08/22 14:11:50;;;;;;;8.65;5.22;;;;;;;;;;5014988;28;20029;-83
2021/08/22 14:14:15;;;;;;;9.98;5.35;;;;;;;;;;5009287;28;20076;-83
2021/08/22 14:16:42;;;;;;;10.68;6.88;;;;;;;;;;5011006;28;20026;-84
2021/08/22 14:19:07;;;;;;;8.35;5.30;;;;;;;;;;5012081;28;20037;-83
2021/08/22 14:21:32;;;;;;;6.97;4.82;;;;;;;;;;5010818;28;20061;-83
2021/08/22 14:23:58;;;;;;;6.28;4.50;;;;;;;;;;5012739;28;20030;-82
2021/08/22 14:26:23;;;;;;;13.40;4.40;;;;;;;;;;5014642;28;20025;-83
2021/08/22 14:28:48;;;;;;;6.82;4.45;;;;;;;;;;5013137;28;20022;-83